sensor_id;sensor_type;location;lat;lon;timestamp;P1;durP1;ratioP1;P2;durP2;ratioP2
7471;SDS011;3777;48.722;8.110;2023-04-03T00:01:26;3.97;;;3.00;;
7471;SDS011;3777;48.722;8.110;2023-04-03T00:03:57;3.13;;;2.70;;
7471;SDS011;3777;48.722;8.110;2023-04-03T00:06:24;3.37;;;3.07;;
7471;SDS011;3777;48.722;8.110;2023-04-03T00:08:52;3.87;;;3.47;;
7471;SDS011;3777;48.722;8.110;2023-04-03T00:11:20;4.53;;;3.20;;
7471;SDS011;3777;48.722;8.110;2023-04-03T00:13:47;4.57;;;3.07;;
7471;SDS011;3777;48.722;8.110;2023-04-03T00:16:14;3.20;;;2.90;;
7471;SDS011;3777;48.722;8.110;2023-04-03T00:18:41;3.47;;;3.00;;
7471;SDS011;3777;48.722;8.110;2023-04-03T00:21:09;3.37;;;3.00;;
7471;SDS011;3777;48.722;8.110;2023-04-03T00:23:38;3.20;;;2.87;;
7471;SDS011;3777;48.722;8.110;2023-04-03T00:26:05;4.03;;;2.83;;
7471;SDS011;3777;48.722;8.110;2023-04-03T00:28:33;4.27;;;3.40;;
7471;SDS011;3777;48.722;8.110;2023-04-03T00:31:00;3.87;;;3.07;;
7471;SDS011;3777;48.722;8.110;2023-04-03T00:33:27;4.70;;;3.33;;
7471;SDS011;3777;48.722;8.110;2023-04-03T00:35:54;4.10;;;3.10;;
7471;SDS011;3777;48.722;8.110;2023-04-03T00:38:21;3.93;;;2.97;;
7471;SDS011;3777;48.722;8.110;2023-04-03T00:40:48;3.13;;;2.83;;
7471;SDS011;3777;48.722;8.110;2023-04-03T00:43:16;4.37;;;2.97;;
7471;SDS011;3777;48.722;8.110;2023-04-03T00:45:48;3.43;;;2.90;;
7471;SDS011;3777;48.722;8.110;2023-04-03T00:48:17;4.40;;;2.90;;
7471;SDS011;3777;48.722;8.110;2023-04-03T00:50:47;4.53;;;3.10;;
7471;SDS011;3777;48.722;8.110;2023-04-03T00:53:16;3.97;;;3.10;;
7471;SDS011;3777;48.722;8.110;2023-04-03T00:55:45;4.37;;;2.90;;
7471;SDS011;3777;48.722;8.110;2023-04-03T00:58:14;2.93;;;2.70;;
7471;SDS011;3777;48.722;8.110;2023-04-03T01:00:44;3.50;;;2.90;;
7471;SDS011;3777;48.722;8.110;2023-04-03T01:03:21;3.67;;;3.30;;
7471;SDS011;3777;48.722;8.110;2023-04-03T01:05:48;3.50;;;3.07;;
7471;SDS011;3777;48.722;8.110;2023-04-03T01:08:15;3.80;;;2.73;;
7471;SDS011;3777;48.722;8.110;2023-04-03T01:10:42;3.60;;;2.87;;
7471;SDS011;3777;48.722;8.110;2023-04-03T01:13:20;3.33;;;2.57;;
7471;SDS011;3777;48.722;8.110;2023-04-03T01:15:51;3.03;;;2.73;;
7471;SDS011;3777;48.722;8.110;2023-04-03T01:18:18;4.50;;;2.60;;
7471;SDS011;3777;48.722;8.110;2023-04-03T01:20:52;3.10;;;2.80;;
7471;SDS011;3777;48.722;8.110;2023-04-03T01:23:40;3.10;;;2.70;;
7471;SDS011;3777;48.722;8.110;2023-04-03T01:26:17;3.13;;;2.37;;
7471;SDS011;3777;48.722;8.110;2023-04-03T01:28:45;3.93;;;2.70;;
7471;SDS011;3777;48.722;8.110;2023-04-03T01:31:16;3.30;;;2.70;;
7471;SDS011;3777;48.722;8.110;2023-04-03T01:33:50;6.10;;;2.57;;
7471;SDS011;3777;48.722;8.110;2023-04-03T01:36:18;2.70;;;2.50;;
7471;SDS011;3777;48.722;8.110;2023-04-03T01:38:45;4.03;;;2.60;;
7471;SDS011;3777;48.722;8.110;2023-04-03T01:41:12;2.93;;;2.63;;
7471;SDS011;3777;48.722;8.110;2023-04-03T01:43:40;3.53;;;3.03;;
7471;SDS011;3777;48.722;8.110;2023-04-03T01:46:07;3.10;;;2.80;;
7471;SDS011;3777;48.722;8.110;2023-04-03T01:48:34;2.63;;;2.40;;
7471;SDS011;3777;48.722;8.110;2023-04-03T01:51:03;3.23;;;2.70;;
7471;SDS011;3777;48.722;8.110;2023-04-03T01:53:30;2.80;;;2.50;;
7471;SDS011;3777;48.722;8.110;2023-04-03T01:55:57;3.17;;;2.70;;
7471;SDS011;3777;48.722;8.110;2023-04-03T01:58:24;2.70;;;2.50;;
7471;SDS011;3777;48.722;8.110;2023-04-03T02:00:51;3.70;;;2.63;;
7471;SDS011;3777;48.722;8.110;2023-04-03T02:03:18;5.07;;;2.87;;
7471;SDS011;3777;48.722;8.110;2023-04-03T02:05:45;3.10;;;2.80;;
7471;SDS011;3777;48.722;8.110;2023-04-03T02:08:14;3.23;;;2.90;;
7471;SDS011;3777;48.722;8.110;2023-04-03T02:10:43;3.80;;;3.00;;
7471;SDS011;3777;48.722;8.110;2023-04-03T02:13:10;3.20;;;2.97;;
7471;SDS011;3777;48.722;8.110;2023-04-03T02:15:37;3.33;;;2.50;;
7471;SDS011;3777;48.722;8.110;2023-04-03T02:18:04;4.47;;;2.73;;
7471;SDS011;3777;48.722;8.110;2023-04-03T02:20:31;4.37;;;2.90;;
7471;SDS011;3777;48.722;8.110;2023-04-03T02:22:58;4.60;;;2.83;;
7471;SDS011;3777;48.722;8.110;2023-04-03T02:25:27;3.50;;;2.77;;
7471;SDS011;3777;48.722;8.110;2023-04-03T02:27:56;4.13;;;2.80;;
7471;SDS011;3777;48.722;8.110;2023-04-03T02:30:23;3.10;;;2.80;;
7471;SDS011;3777;48.722;8.110;2023-04-03T02:32:50;4.73;;;2.70;;
7471;SDS011;3777;48.722;8.110;2023-04-03T02:35:17;3.80;;;3.00;;
7471;SDS011;3777;48.722;8.110;2023-04-03T02:37:44;3.63;;;2.87;;
7471;SDS011;3777;48.722;8.110;2023-04-03T02:40:11;3.13;;;2.70;;
7471;SDS011;3777;48.722;8.110;2023-04-03T02:42:39;5.23;;;2.83;;
7471;SDS011;3777;48.722;8.110;2023-04-03T02:45:06;4.63;;;3.20;;
7471;SDS011;3777;48.722;8.110;2023-04-03T02:47:34;4.10;;;2.70;;
7471;SDS011;3777;48.722;8.110;2023-04-03T02:50:01;3.00;;;2.57;;
7471;SDS011;3777;48.722;8.110;2023-04-03T02:52:28;2.90;;;2.60;;
7471;SDS011;3777;48.722;8.110;2023-04-03T02:54:54;4.93;;;3.00;;
7471;SDS011;3777;48.722;8.110;2023-04-03T02:57:21;5.57;;;2.80;;
7471;SDS011;3777;48.722;8.110;2023-04-03T02:59:50;4.13;;;2.67;;
7471;SDS011;3777;48.722;8.110;2023-04-03T03:02:17;2.67;;;2.47;;
7471;SDS011;3777;48.722;8.110;2023-04-03T03:04:44;3.07;;;2.50;;
7471;SDS011;3777;48.722;8.110;2023-04-03T03:07:11;3.57;;;2.57;;
7471;SDS011;3777;48.722;8.110;2023-04-03T03:09:37;4.37;;;2.50;;
7471;SDS011;3777;48.722;8.110;2023-04-03T03:12:05;4.37;;;2.67;;
7471;SDS011;3777;48.722;8.110;2023-04-03T03:14:32;3.60;;;2.77;;
7471;SDS011;3777;48.722;8.110;2023-04-03T03:17:00;4.60;;;2.80;;
7471;SDS011;3777;48.722;8.110;2023-04-03T03:19:27;4.10;;;3.13;;
7471;SDS011;3777;48.722;8.110;2023-04-03T03:21:54;4.60;;;2.83;;
7471;SDS011;3777;48.722;8.110;2023-04-03T03:24:22;4.27;;;2.97;;
7471;SDS011;3777;48.722;8.110;2023-04-03T03:26:48;3.73;;;2.77;;
7471;SDS011;3777;48.722;8.110;2023-04-03T03:29:15;3.13;;;2.83;;
7471;SDS011;3777;48.722;8.110;2023-04-03T03:31:42;3.50;;;2.73;;
7471;SDS011;3777;48.722;8.110;2023-04-03T03:34:11;3.00;;;2.70;;
7471;SDS011;3777;48.722;8.110;2023-04-03T03:36:38;3.10;;;2.67;;
7471;SDS011;3777;48.722;8.110;2023-04-03T03:39:05;2.97;;;2.67;;
7471;SDS011;3777;48.722;8.110;2023-04-03T03:41:33;5.30;;;3.30;;
7471;SDS011;3777;48.722;8.110;2023-04-03T03:44:00;5.43;;;3.07;;
7471;SDS011;3777;48.722;8.110;2023-04-03T03:46:27;3.43;;;2.67;;
7471;SDS011;3777;48.722;8.110;2023-04-03T03:48:54;3.57;;;2.70;;
7471;SDS011;3777;48.722;8.110;2023-04-03T03:51:22;3.57;;;2.87;;
7471;SDS011;3777;48.722;8.110;2023-04-03T03:53:49;3.17;;;2.87;;
7471;SDS011;3777;48.722;8.110;2023-04-03T03:56:16;4.57;;;2.87;;
7471;SDS011;3777;48.722;8.110;2023-04-03T03:58:43;3.77;;;2.80;;
7471;SDS011;3777;48.722;8.110;2023-04-03T04:01:10;3.20;;;2.70;;
7471;SDS011;3777;48.722;8.110;2023-04-03T04:03:37;3.77;;;2.90;;
7471;SDS011;3777;48.722;8.110;2023-04-03T04:06:04;4.00;;;2.90;;
7471;SDS011;3777;48.722;8.110;2023-04-03T04:08:33;3.33;;;3.00;;
7471;SDS011;3777;48.722;8.110;2023-04-03T04:11:00;3.77;;;2.90;;
7471;SDS011;3777;48.722;8.110;2023-04-03T04:13:27;4.77;;;2.80;;
7471;SDS011;3777;48.722;8.110;2023-04-03T04:15:53;4.73;;;3.10;;
7471;SDS011;3777;48.722;8.110;2023-04-03T04:18:20;3.33;;;2.80;;
7471;SDS011;3777;48.722;8.110;2023-04-03T04:20:48;3.10;;;2.80;;
7471;SDS011;3777;48.722;8.110;2023-04-03T04:23:16;3.57;;;3.07;;
7471;SDS011;3777;48.722;8.110;2023-04-03T04:25:45;3.50;;;2.80;;
7471;SDS011;3777;48.722;8.110;2023-04-03T04:28:12;3.70;;;3.10;;
7471;SDS011;3777;48.722;8.110;2023-04-03T04:30:54;3.30;;;2.90;;
7471;SDS011;3777;48.722;8.110;2023-04-03T04:33:21;3.33;;;3.03;;
7471;SDS011;3777;48.722;8.110;2023-04-03T04:35:48;3.80;;;3.10;;
7471;SDS011;3777;48.722;8.110;2023-04-03T04:38:16;4.87;;;3.10;;
7471;SDS011;3777;48.722;8.110;2023-04-03T04:40:45;3.00;;;2.70;;
7471;SDS011;3777;48.722;8.110;2023-04-03T04:43:13;4.63;;;3.20;;
7471;SDS011;3777;48.722;8.110;2023-04-03T04:45:40;3.73;;;3.00;;
7471;SDS011;3777;48.722;8.110;2023-04-03T04:48:07;3.93;;;3.07;;
7471;SDS011;3777;48.722;8.110;2023-04-03T04:50:34;4.40;;;3.00;;
7471;SDS011;3777;48.722;8.110;2023-04-03T04:53:01;5.20;;;3.13;;
7471;SDS011;3777;48.722;8.110;2023-04-03T04:55:29;3.43;;;3.10;;
7471;SDS011;3777;48.722;8.110;2023-04-03T04:57:57;3.57;;;3.03;;
7471;SDS011;3777;48.722;8.110;2023-04-03T05:00:24;4.33;;;3.73;;
7471;SDS011;3777;48.722;8.110;2023-04-03T05:02:51;6.17;;;3.83;;
7471;SDS011;3777;48.722;8.110;2023-04-03T05:05:18;3.90;;;3.00;;
7471;SDS011;3777;48.722;8.110;2023-04-03T05:07:45;4.87;;;3.40;;
7471;SDS011;3777;48.722;8.110;2023-04-03T05:10:12;4.77;;;3.57;;
7471;SDS011;3777;48.722;8.110;2023-04-03T05:12:39;3.43;;;3.00;;
7471;SDS011;3777;48.722;8.110;2023-04-03T05:15:08;4.30;;;3.27;;
7471;SDS011;3777;48.722;8.110;2023-04-03T05:17:35;4.77;;;3.67;;
7471;SDS011;3777;48.722;8.110;2023-04-03T05:20:03;5.20;;;3.80;;
7471;SDS011;3777;48.722;8.110;2023-04-03T05:22:30;4.63;;;3.40;;
7471;SDS011;3777;48.722;8.110;2023-04-03T05:24:57;3.23;;;2.93;;
7471;SDS011;3777;48.722;8.110;2023-04-03T05:27:25;5.33;;;3.50;;
7471;SDS011;3777;48.722;8.110;2023-04-03T05:29:53;4.07;;;3.20;;
7471;SDS011;3777;48.722;8.110;2023-04-03T05:32:21;3.43;;;3.13;;
7471;SDS011;3777;48.722;8.110;2023-04-03T05:34:48;4.37;;;3.97;;
7471;SDS011;3777;48.722;8.110;2023-04-03T05:37:15;5.80;;;3.50;;
7471;SDS011;3777;48.722;8.110;2023-04-03T05:39:42;4.80;;;3.50;;
7471;SDS011;3777;48.722;8.110;2023-04-03T05:42:09;5.33;;;3.70;;
7471;SDS011;3777;48.722;8.110;2023-04-03T05:44:37;4.73;;;3.60;;
7471;SDS011;3777;48.722;8.110;2023-04-03T05:47:04;4.53;;;3.43;;
7471;SDS011;3777;48.722;8.110;2023-04-03T05:49:32;5.17;;;3.80;;
7471;SDS011;3777;48.722;8.110;2023-04-03T05:52:02;6.47;;;4.40;;
7471;SDS011;3777;48.722;8.110;2023-04-03T05:54:29;4.33;;;3.83;;
7471;SDS011;3777;48.722;8.110;2023-04-03T05:56:57;4.73;;;4.03;;
7471;SDS011;3777;48.722;8.110;2023-04-03T05:59:24;5.07;;;4.07;;
7471;SDS011;3777;48.722;8.110;2023-04-03T06:01:51;5.77;;;3.47;;
7471;SDS011;3777;48.722;8.110;2023-04-03T06:04:18;4.43;;;3.97;;
7471;SDS011;3777;48.722;8.110;2023-04-03T06:06:48;4.90;;;3.60;;
7471;SDS011;3777;48.722;8.110;2023-04-03T06:09:17;4.30;;;3.87;;
7471;SDS011;3777;48.722;8.110;2023-04-03T06:11:46;4.20;;;3.50;;
7471;SDS011;3777;48.722;8.110;2023-04-03T06:14:13;4.87;;;3.40;;
7471;SDS011;3777;48.722;8.110;2023-04-03T06:16:40;4.17;;;3.53;;
7471;SDS011;3777;48.722;8.110;2023-04-03T06:19:07;3.70;;;3.40;;
7471;SDS011;3777;48.722;8.110;2023-04-03T06:21:34;5.70;;;3.23;;
7471;SDS011;3777;48.722;8.110;2023-04-03T06:24:03;4.23;;;3.50;;
7471;SDS011;3777;48.722;8.110;2023-04-03T06:26:31;3.93;;;3.37;;
7471;SDS011;3777;48.722;8.110;2023-04-03T06:28:58;5.13;;;3.97;;
7471;SDS011;3777;48.722;8.110;2023-04-03T06:31:25;3.93;;;3.30;;
7471;SDS011;3777;48.722;8.110;2023-04-03T06:33:52;4.50;;;3.20;;
7471;SDS011;3777;48.722;8.110;2023-04-03T06:36:20;3.60;;;3.00;;
7471;SDS011;3777;48.722;8.110;2023-04-03T06:38:47;3.47;;;2.70;;
7471;SDS011;3777;48.722;8.110;2023-04-03T06:41:16;4.80;;;3.27;;
7471;SDS011;3777;48.722;8.110;2023-04-03T06:43:43;3.57;;;2.87;;
7471;SDS011;3777;48.722;8.110;2023-04-03T06:46:14;4.97;;;3.07;;
7471;SDS011;3777;48.722;8.110;2023-04-03T06:48:41;3.40;;;3.10;;
7471;SDS011;3777;48.722;8.110;2023-04-03T06:51:11;3.47;;;2.73;;
7471;SDS011;3777;48.722;8.110;2023-04-03T06:53:46;3.30;;;3.00;;
7471;SDS011;3777;48.722;8.110;2023-04-03T06:56:13;3.17;;;2.87;;
7471;SDS011;3777;48.722;8.110;2023-04-03T06:58:42;5.77;;;3.10;;
7471;SDS011;3777;48.722;8.110;2023-04-03T07:01:10;5.00;;;2.97;;
7471;SDS011;3777;48.722;8.110;2023-04-03T07:03:39;4.10;;;2.80;;
7471;SDS011;3777;48.722;8.110;2023-04-03T07:06:06;4.93;;;3.20;;
7471;SDS011;3777;48.722;8.110;2023-04-03T07:08:33;3.90;;;3.07;;
7471;SDS011;3777;48.722;8.110;2023-04-03T07:11:00;3.43;;;2.87;;
7471;SDS011;3777;48.722;8.110;2023-04-03T07:13:29;3.37;;;2.93;;
7471;SDS011;3777;48.722;8.110;2023-04-03T07:15:56;4.30;;;3.60;;
7471;SDS011;3777;48.722;8.110;2023-04-03T07:18:23;5.23;;;3.10;;
7471;SDS011;3777;48.722;8.110;2023-04-03T07:20:51;3.57;;;2.80;;
7471;SDS011;3777;48.722;8.110;2023-04-03T07:23:18;5.23;;;3.00;;
7471;SDS011;3777;48.722;8.110;2023-04-03T07:25:45;3.63;;;2.70;;
7471;SDS011;3777;48.722;8.110;2023-04-03T07:28:13;4.17;;;2.83;;
7471;SDS011;3777;48.722;8.110;2023-04-03T07:30:46;3.20;;;2.63;;
7471;SDS011;3777;48.722;8.110;2023-04-03T07:33:16;3.13;;;2.50;;
7471;SDS011;3777;48.722;8.110;2023-04-03T07:35:45;4.10;;;3.00;;
7471;SDS011;3777;48.722;8.110;2023-04-03T07:38:12;3.77;;;3.00;;
7471;SDS011;3777;48.722;8.110;2023-04-03T07:40:39;3.40;;;2.70;;
7471;SDS011;3777;48.722;8.110;2023-04-03T07:43:06;3.67;;;2.57;;
7471;SDS011;3777;48.722;8.110;2023-04-03T07:45:34;3.10;;;2.53;;
7471;SDS011;3777;48.722;8.110;2023-04-03T07:48:03;3.27;;;2.50;;
7471;SDS011;3777;48.722;8.110;2023-04-03T07:50:30;4.13;;;2.67;;
7471;SDS011;3777;48.722;8.110;2023-04-03T07:52:57;3.47;;;2.70;;
7471;SDS011;3777;48.722;8.110;2023-04-03T07:55:24;3.80;;;2.60;;
7471;SDS011;3777;48.722;8.110;2023-04-03T07:57:51;3.73;;;2.73;;
7471;SDS011;3777;48.722;8.110;2023-04-03T08:00:18;5.07;;;2.73;;
7471;SDS011;3777;48.722;8.110;2023-04-03T08:02:46;3.23;;;2.63;;
7471;SDS011;3777;48.722;8.110;2023-04-03T08:05:17;4.93;;;2.80;;
7471;SDS011;3777;48.722;8.110;2023-04-03T08:07:44;4.37;;;2.90;;
7471;SDS011;3777;48.722;8.110;2023-04-03T08:10:11;4.37;;;2.60;;
7471;SDS011;3777;48.722;8.110;2023-04-03T08:12:38;4.33;;;2.70;;
7471;SDS011;3777;48.722;8.110;2023-04-03T08:15:05;6.90;;;3.07;;
7471;SDS011;3777;48.722;8.110;2023-04-03T08:17:33;3.60;;;2.83;;
7471;SDS011;3777;48.722;8.110;2023-04-03T08:20:01;4.10;;;2.90;;
7471;SDS011;3777;48.722;8.110;2023-04-03T08:22:30;5.90;;;2.70;;
7471;SDS011;3777;48.722;8.110;2023-04-03T08:24:57;5.00;;;2.60;;
7471;SDS011;3777;48.722;8.110;2023-04-03T08:27:24;3.00;;;2.70;;
7471;SDS011;3777;48.722;8.110;2023-04-03T08:29:51;4.13;;;3.00;;
7471;SDS011;3777;48.722;8.110;2023-04-03T08:32:18;3.53;;;2.60;;
7471;SDS011;3777;48.722;8.110;2023-04-03T08:34:45;4.63;;;2.63;;
7471;SDS011;3777;48.722;8.110;2023-04-03T08:37:12;4.37;;;2.93;;
7471;SDS011;3777;48.722;8.110;2023-04-03T08:39:42;4.03;;;2.80;;
7471;SDS011;3777;48.722;8.110;2023-04-03T08:42:13;5.53;;;2.67;;
7471;SDS011;3777;48.722;8.110;2023-04-03T08:44:46;4.90;;;3.30;;
7471;SDS011;3777;48.722;8.110;2023-04-03T08:47:18;3.40;;;2.80;;
7471;SDS011;3777;48.722;8.110;2023-04-03T08:49:51;3.90;;;3.07;;
7471;SDS011;3777;48.722;8.110;2023-04-03T08:52:20;3.63;;;2.67;;
7471;SDS011;3777;48.722;8.110;2023-04-03T08:54:55;4.03;;;2.80;;
7471;SDS011;3777;48.722;8.110;2023-04-03T08:57:27;3.60;;;2.70;;
7471;SDS011;3777;48.722;8.110;2023-04-03T08:59:57;4.07;;;2.50;;
7471;SDS011;3777;48.722;8.110;2023-04-03T09:02:28;4.17;;;2.60;;
7471;SDS011;3777;48.722;8.110;2023-04-03T09:04:59;3.67;;;2.50;;
7471;SDS011;3777;48.722;8.110;2023-04-03T09:07:31;3.67;;;2.70;;
7471;SDS011;3777;48.722;8.110;2023-04-03T09:10:05;2.93;;;2.30;;
7471;SDS011;3777;48.722;8.110;2023-04-03T09:12:34;3.07;;;2.20;;
7471;SDS011;3777;48.722;8.110;2023-04-03T09:15:07;3.63;;;2.70;;
7471;SDS011;3777;48.722;8.110;2023-04-03T09:17:42;3.93;;;2.47;;
7471;SDS011;3777;48.722;8.110;2023-04-03T09:20:18;3.63;;;2.80;;
7471;SDS011;3777;48.722;8.110;2023-04-03T09:22:49;2.97;;;2.20;;
7471;SDS011;3777;48.722;8.110;2023-04-03T09:25:20;3.17;;;2.43;;
7471;SDS011;3777;48.722;8.110;2023-04-03T09:27:49;5.70;;;2.30;;
7471;SDS011;3777;48.722;8.110;2023-04-03T09:30:17;3.77;;;2.90;;
7471;SDS011;3777;48.722;8.110;2023-04-03T09:32:46;2.50;;;2.30;;
7471;SDS011;3777;48.722;8.110;2023-04-03T09:35:21;4.13;;;2.63;;
7471;SDS011;3777;48.722;8.110;2023-04-03T09:37:51;3.10;;;2.40;;
7471;SDS011;3777;48.722;8.110;2023-04-03T09:40:30;4.50;;;2.80;;
7471;SDS011;3777;48.722;8.110;2023-04-03T09:43:02;3.13;;;2.70;;
7471;SDS011;3777;48.722;8.110;2023-04-03T09:45:45;2.57;;;2.37;;
7471;SDS011;3777;48.722;8.110;2023-04-03T09:48:15;3.93;;;2.70;;
7471;SDS011;3777;48.722;8.110;2023-04-03T09:50:54;4.33;;;2.73;;
7471;SDS011;3777;48.722;8.110;2023-04-03T09:53:34;3.73;;;2.20;;
7471;SDS011;3777;48.722;8.110;2023-04-03T09:56:04;4.23;;;2.63;;
7471;SDS011;3777;48.722;8.110;2023-04-03T09:58:46;3.87;;;2.73;;
7471;SDS011;3777;48.722;8.110;2023-04-03T10:01:20;3.37;;;2.50;;
7471;SDS011;3777;48.722;8.110;2023-04-03T10:04:02;2.50;;;2.30;;
7471;SDS011;3777;48.722;8.110;2023-04-03T10:06:31;4.27;;;2.60;;
7471;SDS011;3777;48.722;8.110;2023-04-03T10:09:01;3.53;;;2.50;;
7471;SDS011;3777;48.722;8.110;2023-04-03T10:11:32;2.83;;;2.40;;
7471;SDS011;3777;48.722;8.110;2023-04-03T10:13:59;5.13;;;3.00;;
7471;SDS011;3777;48.722;8.110;2023-04-03T10:16:35;3.83;;;2.40;;
7471;SDS011;3777;48.722;8.110;2023-04-03T10:21:59;4.33;;;2.63;;
7471;SDS011;3777;48.722;8.110;2023-04-03T10:24:35;4.43;;;2.97;;
7471;SDS011;3777;48.722;8.110;2023-04-03T10:27:12;3.33;;;2.30;;
7471;SDS011;3777;48.722;8.110;2023-04-03T10:29:46;3.90;;;2.63;;
7471;SDS011;3777;48.722;8.110;2023-04-03T10:35:11;3.37;;;2.30;;
7471;SDS011;3777;48.722;8.110;2023-04-03T10:37:51;2.63;;;2.40;;
7471;SDS011;3777;48.722;8.110;2023-04-03T10:40:30;4.13;;;2.30;;
7471;SDS011;3777;48.722;8.110;2023-04-03T10:43:06;3.87;;;2.57;;
7471;SDS011;3777;48.722;8.110;2023-04-03T10:45:46;4.23;;;2.50;;
7471;SDS011;3777;48.722;8.110;2023-04-03T10:48:22;3.13;;;2.50;;
7471;SDS011;3777;48.722;8.110;2023-04-03T10:51:04;3.17;;;2.60;;
7471;SDS011;3777;48.722;8.110;2023-04-03T10:53:41;3.60;;;2.40;;
7471;SDS011;3777;48.722;8.110;2023-04-03T10:56:13;2.93;;;2.30;;
7471;SDS011;3777;48.722;8.110;2023-04-03T10:58:47;3.77;;;2.47;;
7471;SDS011;3777;48.722;8.110;2023-04-03T11:01:20;2.70;;;2.50;;
7471;SDS011;3777;48.722;8.110;2023-04-03T11:03:50;4.07;;;2.57;;
7471;SDS011;3777;48.722;8.110;2023-04-03T11:06:21;2.83;;;2.37;;
7471;SDS011;3777;48.722;8.110;2023-04-03T11:08:53;3.33;;;2.50;;
7471;SDS011;3777;48.722;8.110;2023-04-03T11:11:24;2.77;;;2.00;;
7471;SDS011;3777;48.722;8.110;2023-04-03T11:13:56;4.10;;;2.10;;
7471;SDS011;3777;48.722;8.110;2023-04-03T11:16:28;2.50;;;2.10;;
7471;SDS011;3777;48.722;8.110;2023-04-03T11:18:58;4.50;;;2.23;;
7471;SDS011;3777;48.722;8.110;2023-04-03T11:21:28;2.80;;;2.20;;
7471;SDS011;3777;48.722;8.110;2023-04-03T11:23:59;3.30;;;2.23;;
7471;SDS011;3777;48.722;8.110;2023-04-03T11:26:31;4.37;;;2.30;;
7471;SDS011;3777;48.722;8.110;2023-04-03T11:29:05;3.20;;;2.20;;
7471;SDS011;3777;48.722;8.110;2023-04-03T11:31:40;2.57;;;2.10;;
7471;SDS011;3777;48.722;8.110;2023-04-03T11:34:25;2.77;;;2.17;;
7471;SDS011;3777;48.722;8.110;2023-04-03T11:36:59;3.27;;;2.23;;
7471;SDS011;3777;48.722;8.110;2023-04-03T11:39:28;2.90;;;2.03;;
7471;SDS011;3777;48.722;8.110;2023-04-03T11:42:12;4.73;;;2.23;;
7471;SDS011;3777;48.722;8.110;2023-04-03T11:44:42;2.50;;;2.07;;
7471;SDS011;3777;48.722;8.110;2023-04-03T11:47:10;3.93;;;2.00;;
7471;SDS011;3777;48.722;8.110;2023-04-03T11:49:51;2.57;;;2.20;;
7471;SDS011;3777;48.722;8.110;2023-04-03T11:58:13;4.10;;;2.80;;
7471;SDS011;3777;48.722;8.110;2023-04-03T12:01:01;5.87;;;2.30;;
7471;SDS011;3777;48.722;8.110;2023-04-03T12:12:35;3.90;;;2.77;;
7471;SDS011;3777;48.722;8.110;2023-04-03T12:15:12;5.13;;;3.40;;
7471;SDS011;3777;48.722;8.110;2023-04-03T12:17:52;6.07;;;2.50;;
7471;SDS011;3777;48.722;8.110;2023-04-03T12:23:23;4.53;;;2.60;;
7471;SDS011;3777;48.722;8.110;2023-04-03T12:25:59;5.10;;;2.60;;
7471;SDS011;3777;48.722;8.110;2023-04-03T12:28:34;3.17;;;2.40;;
7471;SDS011;3777;48.722;8.110;2023-04-03T12:31:04;4.03;;;2.40;;
7471;SDS011;3777;48.722;8.110;2023-04-03T12:33:37;4.00;;;2.30;;
7471;SDS011;3777;48.722;8.110;2023-04-03T12:36:23;5.53;;;2.50;;
7471;SDS011;3777;48.722;8.110;2023-04-03T12:39:04;5.40;;;2.03;;
7471;SDS011;3777;48.722;8.110;2023-04-03T12:41:42;5.00;;;2.30;;
7471;SDS011;3777;48.722;8.110;2023-04-03T12:44:20;2.83;;;2.10;;
7471;SDS011;3777;48.722;8.110;2023-04-03T12:47:13;2.57;;;2.00;;
7471;SDS011;3777;48.722;8.110;2023-04-03T12:49:49;3.20;;;2.10;;
7471;SDS011;3777;48.722;8.110;2023-04-03T12:52:29;4.23;;;2.23;;
7471;SDS011;3777;48.722;8.110;2023-04-03T12:55:00;4.00;;;2.70;;
7471;SDS011;3777;48.722;8.110;2023-04-03T12:57:29;4.80;;;2.20;;
7471;SDS011;3777;48.722;8.110;2023-04-03T12:59:57;2.40;;;2.20;;
7471;SDS011;3777;48.722;8.110;2023-04-03T13:02:25;3.40;;;2.13;;
7471;SDS011;3777;48.722;8.110;2023-04-03T13:04:56;2.57;;;2.00;;
7471;SDS011;3777;48.722;8.110;2023-04-03T13:07:25;4.93;;;2.30;;
7471;SDS011;3777;48.722;8.110;2023-04-03T13:10:01;4.43;;;2.57;;
7471;SDS011;3777;48.722;8.110;2023-04-03T13:12:31;3.07;;;2.10;;
7471;SDS011;3777;48.722;8.110;2023-04-03T13:14:58;2.43;;;1.90;;
7471;SDS011;3777;48.722;8.110;2023-04-03T13:17:29;4.60;;;2.30;;
7471;SDS011;3777;48.722;8.110;2023-04-03T13:20:06;3.40;;;2.07;;
7471;SDS011;3777;48.722;8.110;2023-04-03T13:22:37;4.23;;;1.93;;
7471;SDS011;3777;48.722;8.110;2023-04-03T13:25:09;2.60;;;2.17;;
7471;SDS011;3777;48.722;8.110;2023-04-03T13:27:39;3.07;;;2.23;;
7471;SDS011;3777;48.722;8.110;2023-04-03T13:30:17;3.73;;;2.40;;
7471;SDS011;3777;48.722;8.110;2023-04-03T13:32:49;5.67;;;2.50;;
7471;SDS011;3777;48.722;8.110;2023-04-03T13:35:28;5.33;;;2.50;;
7471;SDS011;3777;48.722;8.110;2023-04-03T13:38:01;3.30;;;2.17;;
7471;SDS011;3777;48.722;8.110;2023-04-03T13:40:32;4.60;;;2.50;;
7471;SDS011;3777;48.722;8.110;2023-04-03T13:43:00;3.33;;;2.07;;
7471;SDS011;3777;48.722;8.110;2023-04-03T13:45:33;2.90;;;2.30;;
7471;SDS011;3777;48.722;8.110;2023-04-03T13:48:09;5.03;;;2.10;;
7471;SDS011;3777;48.722;8.110;2023-04-03T13:51:00;2.93;;;2.10;;
7471;SDS011;3777;48.722;8.110;2023-04-03T13:53:29;4.37;;;2.10;;
7471;SDS011;3777;48.722;8.110;2023-04-03T13:55:59;4.57;;;2.20;;
7471;SDS011;3777;48.722;8.110;2023-04-03T13:58:34;2.83;;;2.17;;
7471;SDS011;3777;48.722;8.110;2023-04-03T14:01:07;3.43;;;2.20;;
7471;SDS011;3777;48.722;8.110;2023-04-03T14:03:39;6.50;;;2.27;;
7471;SDS011;3777;48.722;8.110;2023-04-03T14:06:12;4.70;;;2.30;;
7471;SDS011;3777;48.722;8.110;2023-04-03T14:08:40;4.50;;;2.00;;
7471;SDS011;3777;48.722;8.110;2023-04-03T14:11:08;3.40;;;2.37;;
7471;SDS011;3777;48.722;8.110;2023-04-03T14:13:40;3.47;;;2.07;;
7471;SDS011;3777;48.722;8.110;2023-04-03T14:16:07;3.83;;;2.00;;
7471;SDS011;3777;48.722;8.110;2023-04-03T14:18:38;4.43;;;2.17;;
7471;SDS011;3777;48.722;8.110;2023-04-03T14:21:05;3.50;;;2.30;;
7471;SDS011;3777;48.722;8.110;2023-04-03T14:23:34;4.63;;;2.50;;
7471;SDS011;3777;48.722;8.110;2023-04-03T14:26:01;5.73;;;2.73;;
7471;SDS011;3777;48.722;8.110;2023-04-03T14:28:28;4.40;;;3.13;;
7471;SDS011;3777;48.722;8.110;2023-04-03T14:30:58;4.53;;;2.93;;
7471;SDS011;3777;48.722;8.110;2023-04-03T14:33:25;5.27;;;2.60;;
7471;SDS011;3777;48.722;8.110;2023-04-03T14:35:52;3.07;;;2.30;;
7471;SDS011;3777;48.722;8.110;2023-04-03T14:38:23;4.90;;;3.50;;
7471;SDS011;3777;48.722;8.110;2023-04-03T14:40:54;3.13;;;2.67;;
7471;SDS011;3777;48.722;8.110;2023-04-03T14:43:22;4.07;;;2.50;;
7471;SDS011;3777;48.722;8.110;2023-04-03T14:45:50;2.93;;;2.40;;
7471;SDS011;3777;48.722;8.110;2023-04-03T14:48:19;4.17;;;2.30;;
7471;SDS011;3777;48.722;8.110;2023-04-03T14:50:47;4.03;;;2.10;;
7471;SDS011;3777;48.722;8.110;2023-04-03T14:53:16;2.83;;;2.03;;
7471;SDS011;3777;48.722;8.110;2023-04-03T14:55:47;3.60;;;2.03;;
7471;SDS011;3777;48.722;8.110;2023-04-03T14:58:18;4.03;;;2.60;;
7471;SDS011;3777;48.722;8.110;2023-04-03T15:00:46;3.47;;;2.30;;
7471;SDS011;3777;48.722;8.110;2023-04-03T15:03:14;3.37;;;2.40;;
7471;SDS011;3777;48.722;8.110;2023-04-03T15:05:42;4.67;;;3.00;;
7471;SDS011;3777;48.722;8.110;2023-04-03T15:08:18;3.83;;;2.63;;
7471;SDS011;3777;48.722;8.110;2023-04-03T15:10:47;3.63;;;2.10;;
7471;SDS011;3777;48.722;8.110;2023-04-03T15:13:14;4.43;;;2.50;;
7471;SDS011;3777;48.722;8.110;2023-04-03T15:15:46;5.47;;;2.33;;
7471;SDS011;3777;48.722;8.110;2023-04-03T15:18:15;4.83;;;3.10;;
7471;SDS011;3777;48.722;8.110;2023-04-03T15:20:45;6.97;;;3.27;;
7471;SDS011;3777;48.722;8.110;2023-04-03T15:23:13;3.57;;;2.90;;
7471;SDS011;3777;48.722;8.110;2023-04-03T15:25:41;5.97;;;3.60;;
7471;SDS011;3777;48.722;8.110;2023-04-03T15:28:09;3.20;;;2.50;;
7471;SDS011;3777;48.722;8.110;2023-04-03T15:30:45;2.63;;;2.20;;
7471;SDS011;3777;48.722;8.110;2023-04-03T15:33:12;3.70;;;2.13;;
7471;SDS011;3777;48.722;8.110;2023-04-03T15:35:40;5.30;;;2.53;;
7471;SDS011;3777;48.722;8.110;2023-04-03T15:38:07;4.87;;;2.37;;
7471;SDS011;3777;48.722;8.110;2023-04-03T15:40:35;5.50;;;2.60;;
7471;SDS011;3777;48.722;8.110;2023-04-03T15:43:02;4.67;;;2.27;;
7471;SDS011;3777;48.722;8.110;2023-04-03T15:45:29;3.83;;;2.67;;
7471;SDS011;3777;48.722;8.110;2023-04-03T15:47:58;3.93;;;2.83;;
7471;SDS011;3777;48.722;8.110;2023-04-03T15:50:25;3.00;;;2.57;;
7471;SDS011;3777;48.722;8.110;2023-04-03T15:52:53;3.77;;;2.37;;
7471;SDS011;3777;48.722;8.110;2023-04-03T15:55:20;4.60;;;2.20;;